sensor_id;sensor_type;location;lat;lon;timestamp;P1;durP1;ratioP1;P2;durP2;ratioP2
59788;SDS011;47353;51.614;5.530;2023-11-21T00:00:44;23.33;;;14.88;;
59788;SDS011;47353;51.614;5.530;2023-11-21T00:03:10;23.45;;;15.10;;
59788;SDS011;47353;51.614;5.530;2023-11-21T00:05:36;22.05;;;14.50;;
59788;SDS011;47353;51.614;5.530;2023-11-21T00:08:01;19.70;;;13.15;;
59788;SDS011;47353;51.614;5.530;2023-11-21T00:10:27;17.30;;;12.98;;
59788;SDS011;47353;51.614;5.530;2023-11-21T00:12:53;17.23;;;11.40;;
59788;SDS011;47353;51.614;5.530;2023-11-21T00:15:20;26.80;;;15.52;;
59788;SDS011;47353;51.614;5.530;2023-11-21T00:17:45;25.75;;;14.20;;
59788;SDS011;47353;51.614;5.530;2023-11-21T00:20:11;21.10;;;14.30;;
59788;SDS011;47353;51.614;5.530;2023-11-21T00:22:38;18.40;;;13.10;;
59788;SDS011;47353;51.614;5.530;2023-11-21T00:25:05;20.15;;;12.52;;
59788;SDS011;47353;51.614;5.530;2023-11-21T00:27:31;18.27;;;12.30;;
59788;SDS011;47353;51.614;5.530;2023-11-21T00:29:56;17.77;;;11.98;;
59788;SDS011;47353;51.614;5.530;2023-11-21T00:32:22;16.85;;;10.95;;
59788;SDS011;47353;51.614;5.530;2023-11-21T00:34:47;15.32;;;10.73;;
59788;SDS011;47353;51.614;5.530;2023-11-21T00:37:13;15.77;;;11.20;;
59788;SDS011;47353;51.614;5.530;2023-11-21T00:39:39;19.27;;;11.98;;
59788;SDS011;47353;51.614;5.530;2023-11-21T00:42:05;13.85;;;10.55;;
59788;SDS011;47353;51.614;5.530;2023-11-21T00:44:30;20.75;;;12.43;;
59788;SDS011;47353;51.614;5.530;2023-11-21T00:46:56;17.23;;;11.68;;
59788;SDS011;47353;51.614;5.530;2023-11-21T00:49:21;17.27;;;11.57;;
59788;SDS011;47353;51.614;5.530;2023-11-21T00:51:46;18.70;;;12.70;;
59788;SDS011;47353;51.614;5.530;2023-11-21T00:54:12;18.48;;;12.05;;
59788;SDS011;47353;51.614;5.530;2023-11-21T00:56:37;16.55;;;11.50;;
59788;SDS011;47353;51.614;5.530;2023-11-21T00:59:03;18.52;;;11.70;;
59788;SDS011;47353;51.614;5.530;2023-11-21T01:01:30;19.85;;;12.15;;
59788;SDS011;47353;51.614;5.530;2023-11-21T01:03:55;18.90;;;11.93;;
59788;SDS011;47353;51.614;5.530;2023-11-21T01:06:20;14.90;;;10.55;;
59788;SDS011;47353;51.614;5.530;2023-11-21T01:08:46;15.40;;;9.95;;
59788;SDS011;47353;51.614;5.530;2023-11-21T01:11:11;15.80;;;10.68;;
59788;SDS011;47353;51.614;5.530;2023-11-21T01:13:40;14.90;;;10.15;;
59788;SDS011;47353;51.614;5.530;2023-11-21T01:16:06;18.63;;;11.25;;
59788;SDS011;47353;51.614;5.530;2023-11-21T01:18:32;16.73;;;10.50;;
59788;SDS011;47353;51.614;5.530;2023-11-21T01:20:57;17.13;;;10.93;;
59788;SDS011;47353;51.614;5.530;2023-11-21T01:23:25;16.73;;;10.55;;
59788;SDS011;47353;51.614;5.530;2023-11-21T01:25:51;15.00;;;10.10;;
59788;SDS011;47353;51.614;5.530;2023-11-21T01:28:17;15.77;;;10.60;;
59788;SDS011;47353;51.614;5.530;2023-11-21T01:30:43;16.10;;;10.35;;
59788;SDS011;47353;51.614;5.530;2023-11-21T01:33:09;17.08;;;10.65;;
59788;SDS011;47353;51.614;5.530;2023-11-21T01:35:35;15.98;;;9.93;;
59788;SDS011;47353;51.614;5.530;2023-11-21T01:38:01;15.50;;;10.32;;
59788;SDS011;47353;51.614;5.530;2023-11-21T01:40:26;16.60;;;11.55;;
59788;SDS011;47353;51.614;5.530;2023-11-21T01:42:53;15.30;;;10.02;;
59788;SDS011;47353;51.614;5.530;2023-11-21T01:45:19;14.70;;;9.75;;
59788;SDS011;47353;51.614;5.530;2023-11-21T01:47:45;16.75;;;10.90;;
59788;SDS011;47353;51.614;5.530;2023-11-21T01:50:13;19.00;;;11.90;;
59788;SDS011;47353;51.614;5.530;2023-11-21T01:52:41;18.92;;;12.15;;
59788;SDS011;47353;51.614;5.530;2023-11-21T01:55:08;21.98;;;13.50;;
59788;SDS011;47353;51.614;5.530;2023-11-21T01:57:35;19.73;;;12.20;;
59788;SDS011;47353;51.614;5.530;2023-11-21T02:00:02;22.38;;;13.00;;
59788;SDS011;47353;51.614;5.530;2023-11-21T02:02:40;21.63;;;13.40;;
59788;SDS011;47353;51.614;5.530;2023-11-21T02:05:19;21.25;;;13.02;;
59788;SDS011;47353;51.614;5.530;2023-11-21T02:07:46;19.65;;;12.60;;
59788;SDS011;47353;51.614;5.530;2023-11-21T02:10:17;27.63;;;13.45;;
59788;SDS011;47353;51.614;5.530;2023-11-21T02:12:47;17.45;;;12.32;;
59788;SDS011;47353;51.614;5.530;2023-11-21T02:15:16;18.30;;;12.57;;
59788;SDS011;47353;51.614;5.530;2023-11-21T02:17:45;16.42;;;11.73;;
59788;SDS011;47353;51.614;5.530;2023-11-21T02:20:12;19.48;;;12.93;;
59788;SDS011;47353;51.614;5.530;2023-11-21T02:22:42;20.50;;;14.60;;
59788;SDS011;47353;51.614;5.530;2023-11-21T02:25:09;20.90;;;14.57;;
59788;SDS011;47353;51.614;5.530;2023-11-21T02:27:35;20.33;;;15.23;;
59788;SDS011;47353;51.614;5.530;2023-11-21T02:30:01;28.30;;;15.07;;
59788;SDS011;47353;51.614;5.530;2023-11-21T02:32:29;17.90;;;13.95;;
59788;SDS011;47353;51.614;5.530;2023-11-21T02:34:56;20.52;;;15.73;;
59788;SDS011;47353;51.614;5.530;2023-11-21T02:37:25;20.10;;;15.13;;
59788;SDS011;47353;51.614;5.530;2023-11-21T02:39:51;19.15;;;14.20;;
59788;SDS011;47353;51.614;5.530;2023-11-21T02:42:17;17.40;;;13.18;;
59788;SDS011;47353;51.614;5.530;2023-11-21T02:44:43;16.95;;;12.85;;
59788;SDS011;47353;51.614;5.530;2023-11-21T02:47:09;18.38;;;13.95;;
59788;SDS011;47353;51.614;5.530;2023-11-21T02:49:34;16.73;;;13.35;;
59788;SDS011;47353;51.614;5.530;2023-11-21T02:52:00;16.40;;;12.95;;
59788;SDS011;47353;51.614;5.530;2023-11-21T02:54:26;14.95;;;12.15;;
59788;SDS011;47353;51.614;5.530;2023-11-21T02:56:52;15.73;;;12.25;;
59788;SDS011;47353;51.614;5.530;2023-11-21T02:59:18;37.30;;;16.38;;
59788;SDS011;47353;51.614;5.530;2023-11-21T03:01:44;19.15;;;13.57;;
59788;SDS011;47353;51.614;5.530;2023-11-21T03:04:10;15.45;;;12.35;;
59788;SDS011;47353;51.614;5.530;2023-11-21T03:06:36;17.65;;;13.73;;
59788;SDS011;47353;51.614;5.530;2023-11-21T03:09:01;16.60;;;13.25;;
59788;SDS011;47353;51.614;5.530;2023-11-21T03:11:27;17.73;;;14.05;;
59788;SDS011;47353;51.614;5.530;2023-11-21T03:13:52;18.70;;;14.25;;
59788;SDS011;47353;51.614;5.530;2023-11-21T03:16:18;17.10;;;13.35;;
59788;SDS011;47353;51.614;5.530;2023-11-21T03:18:44;18.88;;;14.70;;
59788;SDS011;47353;51.614;5.530;2023-11-21T03:21:09;16.67;;;12.88;;
59788;SDS011;47353;51.614;5.530;2023-11-21T03:23:35;18.92;;;14.98;;
59788;SDS011;47353;51.614;5.530;2023-11-21T03:26:01;19.30;;;14.88;;
59788;SDS011;47353;51.614;5.530;2023-11-21T03:28:26;18.38;;;14.10;;
59788;SDS011;47353;51.614;5.530;2023-11-21T03:30:53;19.67;;;14.63;;
59788;SDS011;47353;51.614;5.530;2023-11-21T03:33:18;19.65;;;15.10;;
59788;SDS011;47353;51.614;5.530;2023-11-21T03:35:44;16.95;;;13.32;;
59788;SDS011;47353;51.614;5.530;2023-11-21T03:38:09;21.92;;;15.32;;
59788;SDS011;47353;51.614;5.530;2023-11-21T03:40:35;20.77;;;15.20;;
59788;SDS011;47353;51.614;5.530;2023-11-21T03:43:00;17.33;;;13.60;;
59788;SDS011;47353;51.614;5.530;2023-11-21T03:45:26;17.73;;;13.55;;
59788;SDS011;47353;51.614;5.530;2023-11-21T03:47:51;18.05;;;13.13;;
59788;SDS011;47353;51.614;5.530;2023-11-21T03:50:16;16.13;;;11.98;;
59788;SDS011;47353;51.614;5.530;2023-11-21T03:52:42;20.15;;;14.20;;
59788;SDS011;47353;51.614;5.530;2023-11-21T03:55:07;19.20;;;13.25;;
59788;SDS011;47353;51.614;5.530;2023-11-21T03:57:33;16.33;;;12.77;;
59788;SDS011;47353;51.614;5.530;2023-11-21T03:59:58;15.85;;;11.68;;
59788;SDS011;47353;51.614;5.530;2023-11-21T04:02:24;13.35;;;10.77;;
59788;SDS011;47353;51.614;5.530;2023-11-21T04:04:51;15.43;;;11.80;;
59788;SDS011;47353;51.614;5.530;2023-11-21T04:07:16;17.17;;;12.40;;
59788;SDS011;47353;51.614;5.530;2023-11-21T04:09:43;16.42;;;12.27;;
59788;SDS011;47353;51.614;5.530;2023-11-21T04:12:09;19.27;;;13.32;;
59788;SDS011;47353;51.614;5.530;2023-11-21T04:14:34;19.45;;;13.68;;
59788;SDS011;47353;51.614;5.530;2023-11-21T04:17:00;20.67;;;14.50;;
59788;SDS011;47353;51.614;5.530;2023-11-21T04:19:25;19.80;;;15.05;;
59788;SDS011;47353;51.614;5.530;2023-11-21T04:21:50;19.85;;;14.48;;
59788;SDS011;47353;51.614;5.530;2023-11-21T04:24:16;18.33;;;14.32;;
59788;SDS011;47353;51.614;5.530;2023-11-21T04:26:43;18.55;;;14.10;;
59788;SDS011;47353;51.614;5.530;2023-11-21T04:29:09;20.92;;;15.43;;
59788;SDS011;47353;51.614;5.530;2023-11-21T04:31:34;18.48;;;14.80;;
59788;SDS011;47353;51.614;5.530;2023-11-21T04:33:59;18.30;;;14.52;;
59788;SDS011;47353;51.614;5.530;2023-11-21T04:36:25;16.80;;;13.55;;
59788;SDS011;47353;51.614;5.530;2023-11-21T04:38:50;18.45;;;14.43;;
59788;SDS011;47353;51.614;5.530;2023-11-21T04:41:15;19.70;;;15.10;;
59788;SDS011;47353;51.614;5.530;2023-11-21T04:43:41;15.88;;;13.38;;
59788;SDS011;47353;51.614;5.530;2023-11-21T04:46:07;17.33;;;13.13;;
59788;SDS011;47353;51.614;5.530;2023-11-21T04:48:32;16.98;;;12.95;;
59788;SDS011;47353;51.614;5.530;2023-11-21T04:50:58;16.13;;;13.27;;
59788;SDS011;47353;51.614;5.530;2023-11-21T04:53:23;18.23;;;14.30;;
59788;SDS011;47353;51.614;5.530;2023-11-21T04:55:49;17.27;;;13.98;;
59788;SDS011;47353;51.614;5.530;2023-11-21T04:58:14;19.38;;;14.98;;
59788;SDS011;47353;51.614;5.530;2023-11-21T05:00:40;18.10;;;14.63;;
59788;SDS011;47353;51.614;5.530;2023-11-21T05:03:06;19.10;;;14.93;;
59788;SDS011;47353;51.614;5.530;2023-11-21T05:05:32;18.92;;;15.70;;
59788;SDS011;47353;51.614;5.530;2023-11-21T05:07:58;18.33;;;14.18;;
59788;SDS011;47353;51.614;5.530;2023-11-21T05:10:24;18.48;;;14.20;;
59788;SDS011;47353;51.614;5.530;2023-11-21T05:12:50;17.48;;;13.77;;
59788;SDS011;47353;51.614;5.530;2023-11-21T05:15:15;18.15;;;14.52;;
59788;SDS011;47353;51.614;5.530;2023-11-21T05:17:44;19.05;;;14.65;;
59788;SDS011;47353;51.614;5.530;2023-11-21T05:20:11;21.52;;;15.85;;
59788;SDS011;47353;51.614;5.530;2023-11-21T05:22:38;20.13;;;15.23;;
59788;SDS011;47353;51.614;5.530;2023-11-21T05:25:05;18.92;;;14.57;;
59788;SDS011;47353;51.614;5.530;2023-11-21T05:27:32;20.60;;;15.70;;
59788;SDS011;47353;51.614;5.530;2023-11-21T05:29:58;18.50;;;14.52;;
59788;SDS011;47353;51.614;5.530;2023-11-21T05:32:24;19.80;;;15.40;;
59788;SDS011;47353;51.614;5.530;2023-11-21T05:34:50;18.05;;;14.77;;
59788;SDS011;47353;51.614;5.530;2023-11-21T05:37:15;22.27;;;16.80;;
59788;SDS011;47353;51.614;5.530;2023-11-21T05:39:42;20.77;;;16.80;;
59788;SDS011;47353;51.614;5.530;2023-11-21T05:42:07;20.67;;;16.77;;
59788;SDS011;47353;51.614;5.530;2023-11-21T05:44:35;22.70;;;17.05;;
59788;SDS011;47353;51.614;5.530;2023-11-21T05:47:01;22.17;;;17.10;;
59788;SDS011;47353;51.614;5.530;2023-11-21T05:49:26;21.95;;;17.25;;
59788;SDS011;47353;51.614;5.530;2023-11-21T05:51:53;21.23;;;16.58;;
59788;SDS011;47353;51.614;5.530;2023-11-21T05:54:19;20.83;;;16.80;;
59788;SDS011;47353;51.614;5.530;2023-11-21T05:56:44;18.52;;;15.10;;
59788;SDS011;47353;51.614;5.530;2023-11-21T05:59:10;20.83;;;16.58;;
59788;SDS011;47353;51.614;5.530;2023-11-21T06:01:35;17.10;;;13.90;;
59788;SDS011;47353;51.614;5.530;2023-11-21T06:04:03;16.25;;;13.18;;
59788;SDS011;47353;51.614;5.530;2023-11-21T06:06:29;18.98;;;14.27;;
59788;SDS011;47353;51.614;5.530;2023-11-21T06:08:56;17.95;;;13.25;;
59788;SDS011;47353;51.614;5.530;2023-11-21T06:11:21;22.23;;;15.55;;
59788;SDS011;47353;51.614;5.530;2023-11-21T06:13:47;17.30;;;14.63;;
59788;SDS011;47353;51.614;5.530;2023-11-21T06:16:13;30.77;;;19.90;;
59788;SDS011;47353;51.614;5.530;2023-11-21T06:18:41;35.10;;;21.90;;
59788;SDS011;47353;51.614;5.530;2023-11-21T06:21:09;29.02;;;19.33;;
59788;SDS011;47353;51.614;5.530;2023-11-21T06:23:34;34.00;;;20.98;;
59788;SDS011;47353;51.614;5.530;2023-11-21T06:26:00;34.88;;;21.23;;
59788;SDS011;47353;51.614;5.530;2023-11-21T06:28:26;36.47;;;21.98;;
59788;SDS011;47353;51.614;5.530;2023-11-21T06:30:51;32.67;;;20.63;;
59788;SDS011;47353;51.614;5.530;2023-11-21T06:33:18;29.77;;;19.80;;
59788;SDS011;47353;51.614;5.530;2023-11-21T06:35:44;30.02;;;19.60;;
59788;SDS011;47353;51.614;5.530;2023-11-21T06:38:09;31.27;;;19.80;;
59788;SDS011;47353;51.614;5.530;2023-11-21T06:40:35;30.98;;;20.08;;
59788;SDS011;47353;51.614;5.530;2023-11-21T06:43:00;29.75;;;20.23;;
59788;SDS011;47353;51.614;5.530;2023-11-21T06:45:26;29.23;;;18.58;;
59788;SDS011;47353;51.614;5.530;2023-11-21T06:47:51;27.05;;;18.40;;
59788;SDS011;47353;51.614;5.530;2023-11-21T06:50:17;25.77;;;17.15;;
59788;SDS011;47353;51.614;5.530;2023-11-21T06:52:43;23.00;;;16.55;;
59788;SDS011;47353;51.614;5.530;2023-11-21T06:55:09;29.60;;;18.98;;
59788;SDS011;47353;51.614;5.530;2023-11-21T06:57:35;25.70;;;17.92;;
59788;SDS011;47353;51.614;5.530;2023-11-21T07:00:01;26.80;;;17.70;;
59788;SDS011;47353;51.614;5.530;2023-11-21T07:02:27;23.77;;;16.70;;
59788;SDS011;47353;51.614;5.530;2023-11-21T07:04:53;26.52;;;16.60;;
59788;SDS011;47353;51.614;5.530;2023-11-21T07:07:19;22.65;;;16.08;;
59788;SDS011;47353;51.614;5.530;2023-11-21T07:09:44;25.95;;;16.70;;
59788;SDS011;47353;51.614;5.530;2023-11-21T07:12:10;26.05;;;16.98;;
59788;SDS011;47353;51.614;5.530;2023-11-21T07:14:36;21.67;;;15.10;;
59788;SDS011;47353;51.614;5.530;2023-11-21T07:17:04;28.13;;;16.80;;
59788;SDS011;47353;51.614;5.530;2023-11-21T07:19:29;36.90;;;21.75;;
59788;SDS011;47353;51.614;5.530;2023-11-21T07:21:55;37.42;;;20.58;;
59788;SDS011;47353;51.614;5.530;2023-11-21T07:24:21;36.42;;;21.65;;
59788;SDS011;47353;51.614;5.530;2023-11-21T07:26:47;35.03;;;19.50;;
59788;SDS011;47353;51.614;5.530;2023-11-21T07:29:13;34.22;;;19.58;;
59788;SDS011;47353;51.614;5.530;2023-11-21T07:31:38;33.53;;;18.52;;
59788;SDS011;47353;51.614;5.530;2023-11-21T07:34:04;31.23;;;18.80;;
59788;SDS011;47353;51.614;5.530;2023-11-21T07:36:30;34.78;;;19.45;;
59788;SDS011;47353;51.614;5.530;2023-11-21T07:38:56;31.33;;;17.75;;
59788;SDS011;47353;51.614;5.530;2023-11-21T07:41:22;27.63;;;18.02;;
59788;SDS011;47353;51.614;5.530;2023-11-21T07:43:47;24.38;;;16.10;;
59788;SDS011;47353;51.614;5.530;2023-11-21T07:46:13;26.55;;;16.75;;
59788;SDS011;47353;51.614;5.530;2023-11-21T07:48:39;25.63;;;16.10;;
59788;SDS011;47353;51.614;5.530;2023-11-21T07:51:06;31.27;;;19.20;;
59788;SDS011;47353;51.614;5.530;2023-11-21T07:53:34;24.55;;;16.23;;
59788;SDS011;47353;51.614;5.530;2023-11-21T07:56:04;30.92;;;19.23;;
59788;SDS011;47353;51.614;5.530;2023-11-21T07:58:30;30.75;;;20.02;;
59788;SDS011;47353;51.614;5.530;2023-11-21T08:00:58;31.88;;;19.80;;
59788;SDS011;47353;51.614;5.530;2023-11-21T08:03:24;29.35;;;18.88;;
59788;SDS011;47353;51.614;5.530;2023-11-21T08:05:51;31.08;;;19.58;;
59788;SDS011;47353;51.614;5.530;2023-11-21T08:08:17;30.70;;;19.27;;
59788;SDS011;47353;51.614;5.530;2023-11-21T08:10:43;26.30;;;17.00;;
59788;SDS011;47353;51.614;5.530;2023-11-21T08:13:21;28.77;;;18.38;;
59788;SDS011;47353;51.614;5.530;2023-11-21T08:15:58;28.60;;;17.50;;
59788;SDS011;47353;51.614;5.530;2023-11-21T08:18:27;24.60;;;15.50;;
59788;SDS011;47353;51.614;5.530;2023-11-21T08:20:54;27.98;;;16.40;;
59788;SDS011;47353;51.614;5.530;2023-11-21T08:23:20;33.95;;;18.80;;
59788;SDS011;47353;51.614;5.530;2023-11-21T08:25:46;27.80;;;16.80;;
59788;SDS011;47353;51.614;5.530;2023-11-21T08:28:12;27.15;;;15.88;;
59788;SDS011;47353;51.614;5.530;2023-11-21T08:30:39;24.35;;;15.65;;
59788;SDS011;47353;51.614;5.530;2023-11-21T08:33:06;23.58;;;15.35;;
59788;SDS011;47353;51.614;5.530;2023-11-21T08:35:33;25.42;;;15.40;;
59788;SDS011;47353;51.614;5.530;2023-11-21T08:37:59;32.50;;;18.15;;
59788;SDS011;47353;51.614;5.530;2023-11-21T08:40:24;24.55;;;15.25;;
59788;SDS011;47353;51.614;5.530;2023-11-21T08:42:50;22.67;;;14.10;;
59788;SDS011;47353;51.614;5.530;2023-11-21T08:45:17;29.58;;;16.73;;
59788;SDS011;47353;51.614;5.530;2023-11-21T08:47:44;25.67;;;16.13;;
59788;SDS011;47353;51.614;5.530;2023-11-21T08:50:10;25.33;;;15.60;;
59788;SDS011;47353;51.614;5.530;2023-11-21T08:52:37;23.50;;;14.50;;
59788;SDS011;47353;51.614;5.530;2023-11-21T08:55:04;29.17;;;17.17;;
59788;SDS011;47353;51.614;5.530;2023-11-21T08:57:35;37.45;;;20.38;;
59788;SDS011;47353;51.614;5.530;2023-11-21T09:00:01;33.13;;;18.60;;
59788;SDS011;47353;51.614;5.530;2023-11-21T09:02:28;36.58;;;20.15;;
59788;SDS011;47353;51.614;5.530;2023-11-21T09:04:53;39.22;;;19.45;;
59788;SDS011;47353;51.614;5.530;2023-11-21T09:07:19;33.53;;;18.90;;
59788;SDS011;47353;51.614;5.530;2023-11-21T09:09:47;29.95;;;17.10;;
59788;SDS011;47353;51.614;5.530;2023-11-21T09:12:14;22.67;;;14.07;;
59788;SDS011;47353;51.614;5.530;2023-11-21T09:14:39;33.38;;;18.15;;
59788;SDS011;47353;51.614;5.530;2023-11-21T09:17:05;30.02;;;17.25;;
59788;SDS011;47353;51.614;5.530;2023-11-21T09:19:36;28.98;;;16.45;;
59788;SDS011;47353;51.614;5.530;2023-11-21T09:22:10;20.73;;;13.80;;
59788;SDS011;47353;51.614;5.530;2023-11-21T09:24:35;17.13;;;11.98;;
59788;SDS011;47353;51.614;5.530;2023-11-21T09:27:02;15.95;;;10.45;;
59788;SDS011;47353;51.614;5.530;2023-11-21T09:29:28;15.98;;;10.00;;
59788;SDS011;47353;51.614;5.530;2023-11-21T09:31:54;20.35;;;12.13;;
59788;SDS011;47353;51.614;5.530;2023-11-21T09:34:21;16.88;;;10.45;;
59788;SDS011;47353;51.614;5.530;2023-11-21T09:36:47;18.42;;;10.93;;
59788;SDS011;47353;51.614;5.530;2023-11-21T09:39:13;14.93;;;9.43;;
59788;SDS011;47353;51.614;5.530;2023-11-21T09:41:43;14.63;;;9.18;;
59788;SDS011;47353;51.614;5.530;2023-11-21T09:44:14;12.95;;;8.32;;
59788;SDS011;47353;51.614;5.530;2023-11-21T09:46:48;12.98;;;7.88;;
59788;SDS011;47353;51.614;5.530;2023-11-21T09:49:20;24.52;;;14.77;;
59788;SDS011;47353;51.614;5.530;2023-11-21T09:51:50;27.95;;;16.17;;
59788;SDS011;47353;51.614;5.530;2023-11-21T09:54:19;29.58;;;17.02;;
59788;SDS011;47353;51.614;5.530;2023-11-21T09:56:46;22.88;;;14.82;;
59788;SDS011;47353;51.614;5.530;2023-11-21T09:59:13;23.38;;;14.65;;
59788;SDS011;47353;51.614;5.530;2023-11-21T10:01:40;22.42;;;13.65;;
59788;SDS011;47353;51.614;5.530;2023-11-21T10:04:07;18.38;;;11.75;;
59788;SDS011;47353;51.614;5.530;2023-11-21T10:06:37;15.50;;;9.68;;
59788;SDS011;47353;51.614;5.530;2023-11-21T10:09:05;18.30;;;11.35;;
59788;SDS011;47353;51.614;5.530;2023-11-21T10:11:36;27.70;;;15.80;;
59788;SDS011;47353;51.614;5.530;2023-11-21T10:14:12;27.85;;;16.48;;
59788;SDS011;47353;51.614;5.530;2023-11-21T10:16:40;25.35;;;15.20;;
59788;SDS011;47353;51.614;5.530;2023-11-21T10:19:08;25.65;;;15.30;;
59788;SDS011;47353;51.614;5.530;2023-11-21T10:21:35;27.30;;;15.93;;
59788;SDS011;47353;51.614;5.530;2023-11-21T10:24:01;19.63;;;12.73;;
59788;SDS011;47353;51.614;5.530;2023-11-21T10:26:28;19.25;;;12.45;;
59788;SDS011;47353;51.614;5.530;2023-11-21T10:29:00;18.13;;;11.07;;
59788;SDS011;47353;51.614;5.530;2023-11-21T10:31:31;13.27;;;9.18;;
59788;SDS011;47353;51.614;5.530;2023-11-21T10:34:11;16.17;;;9.65;;
59788;SDS011;47353;51.614;5.530;2023-11-21T10:36:38;15.27;;;9.77;;
59788;SDS011;47353;51.614;5.530;2023-11-21T10:39:03;18.13;;;11.05;;
59788;SDS011;47353;51.614;5.530;2023-11-21T10:41:28;15.05;;;9.85;;
59788;SDS011;47353;51.614;5.530;2023-11-21T10:43:54;23.73;;;13.07;;
59788;SDS011;47353;51.614;5.530;2023-11-21T10:46:21;21.60;;;12.82;;
59788;SDS011;47353;51.614;5.530;2023-11-21T10:48:52;22.83;;;12.45;;
59788;SDS011;47353;51.614;5.530;2023-11-21T10:51:20;18.55;;;10.52;;
59788;SDS011;47353;51.614;5.530;2023-11-21T10:53:46;21.73;;;11.32;;
59788;SDS011;47353;51.614;5.530;2023-11-21T10:56:11;19.75;;;10.73;;
59788;SDS011;47353;51.614;5.530;2023-11-21T11:01:10;20.45;;;11.10;;
59788;SDS011;47353;51.614;5.530;2023-11-21T11:03:37;19.10;;;11.02;;
59788;SDS011;47353;51.614;5.530;2023-11-21T11:06:04;22.13;;;11.75;;
59788;SDS011;47353;51.614;5.530;2023-11-21T11:08:32;16.42;;;10.10;;
59788;SDS011;47353;51.614;5.530;2023-11-21T11:11:00;20.83;;;11.30;;
59788;SDS011;47353;51.614;5.530;2023-11-21T11:13:26;20.52;;;12.68;;
59788;SDS011;47353;51.614;5.530;2023-11-21T11:15:51;20.90;;;13.45;;
59788;SDS011;47353;51.614;5.530;2023-11-21T11:18:30;21.77;;;13.43;;
59788;SDS011;47353;51.614;5.530;2023-11-21T11:24:17;21.95;;;13.95;;
59788;SDS011;47353;51.614;5.530;2023-11-21T11:30:11;16.95;;;11.50;;
59788;SDS011;47353;51.614;5.530;2023-11-21T11:35:53;20.45;;;13.18;;
59788;SDS011;47353;51.614;5.530;2023-11-21T11:40:52;18.42;;;12.65;;
59788;SDS011;47353;51.614;5.530;2023-11-21T11:43:25;20.42;;;12.13;;
59788;SDS011;47353;51.614;5.530;2023-11-21T11:48:20;19.05;;;11.73;;
59788;SDS011;47353;51.614;5.530;2023-11-21T11:51:03;18.55;;;11.18;;
59788;SDS011;47353;51.614;5.530;2023-11-21T11:53:40;15.00;;;10.48;;
59788;SDS011;47353;51.614;5.530;2023-11-21T11:58:49;15.10;;;10.13;;
59788;SDS011;47353;51.614;5.530;2023-11-21T12:01:19;17.48;;;11.45;;
59788;SDS011;47353;51.614;5.530;2023-11-21T12:04:10;14.70;;;10.65;;
59788;SDS011;47353;51.614;5.530;2023-11-21T12:06:40;12.80;;;9.15;;
59788;SDS011;47353;51.614;5.530;2023-11-21T12:09:07;12.50;;;8.48;;
59788;SDS011;47353;51.614;5.530;2023-11-21T12:11:46;12.25;;;8.20;;
59788;SDS011;47353;51.614;5.530;2023-11-21T12:14:13;12.50;;;8.07;;
59788;SDS011;47353;51.614;5.530;2023-11-21T12:16:39;11.43;;;8.35;;
59788;SDS011;47353;51.614;5.530;2023-11-21T12:19:05;17.48;;;11.43;;
59788;SDS011;47353;51.614;5.530;2023-11-21T12:21:30;16.40;;;10.68;;
59788;SDS011;47353;51.614;5.530;2023-11-21T12:23:57;14.15;;;9.45;;
59788;SDS011;47353;51.614;5.530;2023-11-21T12:26:23;17.48;;;11.23;;
59788;SDS011;47353;51.614;5.530;2023-11-21T12:28:52;21.65;;;13.07;;
59788;SDS011;47353;51.614;5.530;2023-11-21T12:31:21;19.90;;;12.77;;
59788;SDS011;47353;51.614;5.530;2023-11-21T12:33:47;15.77;;;10.30;;
59788;SDS011;47353;51.614;5.530;2023-11-21T12:36:13;20.40;;;12.13;;
59788;SDS011;47353;51.614;5.530;2023-11-21T12:38:38;21.80;;;13.90;;
59788;SDS011;47353;51.614;5.530;2023-11-21T12:41:04;25.40;;;14.93;;
59788;SDS011;47353;51.614;5.530;2023-11-21T12:43:31;25.90;;;15.82;;
59788;SDS011;47353;51.614;5.530;2023-11-21T12:46:07;23.58;;;14.23;;
59788;SDS011;47353;51.614;5.530;2023-11-21T12:48:36;18.77;;;11.75;;
59788;SDS011;47353;51.614;5.530;2023-11-21T12:51:04;22.75;;;13.15;;
59788;SDS011;47353;51.614;5.530;2023-11-21T12:53:31;18.15;;;11.30;;
59788;SDS011;47353;51.614;5.530;2023-11-21T12:56:02;20.70;;;12.40;;
59788;SDS011;47353;51.614;5.530;2023-11-21T12:58:31;24.67;;;14.70;;
59788;SDS011;47353;51.614;5.530;2023-11-21T13:00:58;21.88;;;13.75;;
59788;SDS011;47353;51.614;5.530;2023-11-21T13:03:25;20.05;;;13.00;;
59788;SDS011;47353;51.614;5.530;2023-11-21T13:05:51;19.10;;;12.60;;
59788;SDS011;47353;51.614;5.530;2023-11-21T13:08:22;14.80;;;10.60;;
59788;SDS011;47353;51.614;5.530;2023-11-21T13:10:50;14.20;;;9.98;;
59788;SDS011;47353;51.614;5.530;2023-11-21T13:13:17;10.95;;;7.88;;
59788;SDS011;47353;51.614;5.530;2023-11-21T13:15:49;11.10;;;8.35;;
59788;SDS011;47353;51.614;5.530;2023-11-21T13:18:16;16.83;;;11.07;;
59788;SDS011;47353;51.614;5.530;2023-11-21T13:20:42;13.07;;;9.40;;
59788;SDS011;47353;51.614;5.530;2023-11-21T13:23:08;14.95;;;9.80;;
59788;SDS011;47353;51.614;5.530;2023-11-21T13:25:36;11.45;;;8.30;;
59788;SDS011;47353;51.614;5.530;2023-11-21T13:28:04;14.10;;;9.65;;
59788;SDS011;47353;51.614;5.530;2023-11-21T13:30:30;16.05;;;11.00;;
59788;SDS011;47353;51.614;5.530;2023-11-21T13:33:01;18.85;;;12.00;;
59788;SDS011;47353;51.614;5.530;2023-11-21T13:35:35;18.15;;;11.38;;
59788;SDS011;47353;51.614;5.530;2023-11-21T13:38:08;17.38;;;10.57;;
59788;SDS011;47353;51.614;5.530;2023-11-21T13:40:37;16.02;;;10.32;;
59788;SDS011;47353;51.614;5.530;2023-11-21T13:43:14;18.92;;;11.43;;
59788;SDS011;47353;51.614;5.530;2023-11-21T13:45:43;21.45;;;12.50;;
59788;SDS011;47353;51.614;5.530;2023-11-21T13:48:10;16.98;;;11.25;;
59788;SDS011;47353;51.614;5.530;2023-11-21T13:50:42;17.58;;;10.75;;
59788;SDS011;47353;51.614;5.530;2023-11-21T13:53:13;12.95;;;9.57;;
59788;SDS011;47353;51.614;5.530;2023-11-21T13:55:51;12.45;;;8.88;;
59788;SDS011;47353;51.614;5.530;2023-11-21T13:58:20;14.47;;;9.40;;
59788;SDS011;47353;51.614;5.530;2023-11-21T14:01:05;12.38;;;8.73;;
59788;SDS011;47353;51.614;5.530;2023-11-21T14:03:38;10.57;;;7.55;;
59788;SDS011;47353;51.614;5.530;2023-11-21T14:06:13;9.32;;;6.80;;
59788;SDS011;47353;51.614;5.530;2023-11-21T14:08:45;11.13;;;8.07;;
59788;SDS011;47353;51.614;5.530;2023-11-21T14:11:12;14.93;;;9.13;;
59788;SDS011;47353;51.614;5.530;2023-11-21T14:13:42;11.38;;;7.85;;
59788;SDS011;47353;51.614;5.530;2023-11-21T14:16:11;12.55;;;8.32;;
59788;SDS011;47353;51.614;5.530;2023-11-21T14:18:39;10.50;;;7.55;;
59788;SDS011;47353;51.614;5.530;2023-11-21T14:21:15;12.65;;;8.38;;
59788;SDS011;47353;51.614;5.530;2023-11-21T14:23:41;12.65;;;8.65;;
59788;SDS011;47353;51.614;5.530;2023-11-21T14:26:08;14.32;;;8.77;;
59788;SDS011;47353;51.614;5.530;2023-11-21T14:28:33;12.23;;;8.23;;
59788;SDS011;47353;51.614;5.530;2023-11-21T14:31:00;10.77;;;7.43;;
59788;SDS011;47353;51.614;5.530;2023-11-21T14:33:26;14.18;;;8.75;;
59788;SDS011;47353;51.614;5.530;2023-11-21T14:35:52;12.23;;;8.65;;
59788;SDS011;47353;51.614;5.530;2023-11-21T14:38:17;11.32;;;8.38;;
59788;SDS011;47353;51.614;5.530;2023-11-21T14:40:43;13.48;;;8.35;;
59788;SDS011;47353;51.614;5.530;2023-11-21T14:43:09;11.23;;;7.80;;